Time;durP1;ratioP1;P1;durP2;ratioP2;P2;SDS_P1;SDS_P2;PMS_P1;PMS_P2;Temp;Humidity;BMP_temperature;BMP_pressure;BME280_temperature;BME280_humidity;BME280_pressure;Samples;Min_cycle;Max_cycle;Signal;HPM_P1;HPM_P2
2023/09/13 00:00:09;;;;;;;9.75;5.38;;;;;;;16.52;100.00;101461.53;5073084;28;20032;-76
2023/09/13 00:02:35;;;;;;;9.95;5.20;;;;;;;16.57;100.00;101468.09;5072508;28;20438;-77
2023/09/13 00:05:01;;;;;;;8.45;5.00;;;;;;;16.61;100.00;101465.06;5073110;28;20028;-77
2023/09/13 00:07:26;;;;;;;10.40;5.07;;;;;;;16.64;100.00;101470.13;5073082;28;20064;-77
2023/09/13 00:09:51;;;;;;;12.20;5.53;;;;;;;16.67;100.00;101465.25;5072195;28;20067;-76
2023/09/13 00:12:17;;;;;;;11.13;5.57;;;;;;;16.72;100.00;101467.47;5073039;28;20067;-76
2023/09/13 00:14:42;;;;;;;12.80;5.25;;;;;;;16.76;100.00;101468.81;5072256;28;20033;-76
2023/09/13 00:17:07;;;;;;;9.00;5.05;;;;;;;16.78;100.00;101460.56;5072620;28;20039;-76
2023/09/13 00:19:33;;;;;;;10.77;5.43;;;;;;;16.82;100.00;101457.38;5072942;28;20060;-76
2023/09/13 00:21:58;;;;;;;12.88;6.43;;;;;;;16.84;100.00;101460.78;5072444;28;20028;-76
2023/09/13 00:24:24;;;;;;;13.15;5.80;;;;;;;16.87;100.00;101457.78;5072652;28;20044;-76
2023/09/13 00:26:50;;;;;;;11.18;5.95;;;;;;;16.88;100.00;101451.41;5054498;28;20036;-76
2023/09/13 00:29:15;;;;;;;16.50;5.97;;;;;;;16.87;100.00;101456.94;5072742;28;20045;-76
2023/09/13 00:31:40;;;;;;;16.77;6.78;;;;;;;16.87;100.00;101455.09;5071172;28;20479;-76
2023/09/13 00:34:07;;;;;;;12.43;6.30;;;;;;;16.87;100.00;101447.03;5072768;28;20481;-76
2023/09/13 00:36:32;;;;;;;14.52;5.80;;;;;;;16.85;100.00;101453.53;5073005;28;20078;-76
2023/09/13 00:38:58;;;;;;;16.08;6.80;;;;;;;16.82;100.00;101457.38;5072233;28;20028;-77
2023/09/13 00:41:23;;;;;;;12.57;6.18;;;;;;;16.79;100.00;101457.72;5072686;28;20112;-77
2023/09/13 00:43:48;;;;;;;14.02;6.40;;;;;;;16.78;100.00;101457.88;5070921;28;20028;-77
2023/09/13 00:46:14;;;;;;;13.32;6.78;;;;;;;16.75;100.00;101459.09;5072687;28;20037;-77
2023/09/13 00:48:41;;;;;;;12.55;7.22;;;;;;;16.75;100.00;101461.78;5072266;28;20079;-77
2023/09/13 00:51:08;;;;;;;12.55;6.38;;;;;;;16.77;100.00;101464.28;5072505;28;20115;-77
2023/09/13 00:53:34;;;;;;;17.77;6.95;;;;;;;16.83;100.00;101469.00;5072585;28;20036;-77
2023/09/13 00:56:00;;;;;;;10.25;6.82;;;;;;;16.86;100.00;101457.91;5071871;28;20082;-77
2023/09/13 00:58:26;;;;;;;16.15;7.40;;;;;;;16.87;100.00;101459.66;5072743;28;20040;-78
2023/09/13 01:00:53;;;;;;;13.35;7.03;;;;;;;16.92;100.00;101462.66;5071879;28;20037;-77
2023/09/13 01:03:20;;;;;;;14.60;6.50;;;;;;;16.94;100.00;101463.31;5072292;28;20513;-77
2023/09/13 01:05:47;;;;;;;15.20;6.68;;;;;;;16.96;100.00;101455.09;5071739;28;20056;-77
2023/09/13 01:08:13;;;;;;;26.23;7.95;;;;;;;16.99;100.00;101461.00;5072647;28;20035;-77
2023/09/13 01:10:38;;;;;;;39.17;8.48;;;;;;;16.99;100.00;101460.13;5072073;28;20028;-76
2023/09/13 01:13:03;;;;;;;16.27;7.95;;;;;;;16.96;100.00;101452.41;5071902;28;20040;-77
2023/09/13 01:15:34;;;;;;;15.82;7.90;;;;;;;16.89;100.00;101449.56;5072181;28;20068;-77
2023/09/13 01:18:08;;;;;;;13.50;7.43;;;;;;;16.82;100.00;101437.75;5071634;28;20047;-77
2023/09/13 01:20:52;;;;;;;16.80;8.63;;;;;;;16.78;100.00;101444.44;5072225;28;20025;-77
2023/09/13 01:23:29;;;;;;;14.30;8.05;;;;;;;16.73;100.00;101439.56;5072273;28;20101;-78
2023/09/13 01:26:51;;;;;;;16.50;8.85;;;;;;;16.65;100.00;101426.97;5071829;28;20032;-78
2023/09/13 01:29:19;;;;;;;18.95;8.75;;;;;;;16.59;100.00;101442.94;5049761;28;20033;-78
2023/09/13 01:31:45;;;;;;;17.95;8.90;;;;;;;16.53;100.00;101439.03;5049289;28;20120;-78
2023/09/13 01:34:10;;;;;;;19.25;10.23;;;;;;;16.49;100.00;101435.00;5063222;28;20048;-78
2023/09/13 01:36:37;;;;;;;19.80;9.85;;;;;;;16.46;100.00;101449.59;5070605;28;20526;-78
2023/09/13 01:39:04;;;;;;;16.67;9.25;;;;;;;16.44;100.00;101440.84;5071540;28;20048;-78
2023/09/13 01:42:03;;;;;;;20.95;10.02;;;;;;;16.37;100.00;101442.50;5071885;28;20044;-78
2023/09/13 01:44:30;;;;;;;19.50;10.82;;;;;;;16.30;100.00;101436.09;5069586;28;20040;-78
2023/09/13 01:46:56;;;;;;;17.05;9.82;;;;;;;16.24;100.00;101444.81;5071576;28;20494;-78
2023/09/13 01:49:22;;;;;;;15.15;9.55;;;;;;;16.17;100.00;101445.44;5072020;28;20036;-78
2023/09/13 01:51:48;;;;;;;18.55;10.10;;;;;;;16.11;100.00;101442.56;5071389;28;20066;-78
2023/09/13 01:54:17;;;;;;;20.55;10.55;;;;;;;16.09;100.00;101455.31;5071925;28;20072;-77
2023/09/13 01:56:42;;;;;;;21.60;10.82;;;;;;;16.03;100.00;101449.59;5075561;28;20056;-78
2023/09/13 01:59:08;;;;;;;24.42;11.40;;;;;;;16.02;100.00;101447.06;5073734;28;20071;-78
2023/09/13 02:01:33;;;;;;;21.77;11.00;;;;;;;16.00;100.00;101446.38;5075443;28;20029;-78
2023/09/13 02:03:58;;;;;;;20.80;10.95;;;;;;;15.98;100.00;101448.38;5073803;28;20028;-78
2023/09/13 02:06:24;;;;;;;23.30;11.25;;;;;;;15.95;100.00;101446.03;5074103;28;20093;-77
2023/09/13 02:08:49;;;;;;;26.33;11.88;;;;;;;15.93;100.00;101456.91;5073466;28;20393;-77
2023/09/13 02:11:14;;;;;;;22.10;10.38;;;;;;;15.92;100.00;101452.53;5075374;28;20115;-76
2023/09/13 02:13:40;;;;;;;23.65;11.32;;;;;;;15.92;100.00;101449.84;5075204;28;20372;-76
2023/09/13 02:16:07;;;;;;;27.00;12.75;;;;;;;15.92;100.00;101457.91;5074775;28;20037;-79
2023/09/13 02:18:33;;;;;;;26.65;12.35;;;;;;;15.94;100.00;101471.16;5073340;28;20056;-78
2023/09/13 02:20:58;;;;;;;26.88;12.43;;;;;;;15.96;100.00;101464.66;5074325;28;20040;-79
2023/09/13 02:23:23;;;;;;;21.15;11.45;;;;;;;16.03;100.00;101468.38;5074865;28;20036;-78
2023/09/13 02:25:49;;;;;;;28.35;13.65;;;;;;;16.09;100.00;101461.50;5074990;28;20085;-78
2023/09/13 02:28:14;;;;;;;30.77;13.93;;;;;;;16.17;100.00;101466.94;5074437;28;20060;-78
2023/09/13 02:30:40;;;;;;;30.80;14.70;;;;;;;16.26;100.00;101461.59;5074973;28;20024;-79
2023/09/13 02:33:06;;;;;;;32.00;14.45;;;;;;;16.31;100.00;101465.47;5074077;28;20065;-79
2023/09/13 02:35:32;;;;;;;34.13;15.70;;;;;;;16.34;100.00;101467.00;5074859;28;20036;-78
2023/09/13 02:37:58;;;;;;;33.30;16.10;;;;;;;16.33;100.00;101465.31;5074510;28;20037;-79
2023/09/13 02:40:23;;;;;;;38.20;18.25;;;;;;;16.31;100.00;101459.28;5074629;28;20083;-78
2023/09/13 02:42:49;;;;;;;40.97;18.35;;;;;;;16.31;100.00;101461.94;5074651;28;20044;-79
2023/09/13 02:45:15;;;;;;;31.77;16.58;;;;;;;16.27;100.00;101463.28;5074184;28;20036;-79
2023/09/13 02:47:40;;;;;;;37.15;18.02;;;;;;;16.22;100.00;101463.75;5073373;28;20036;-79
2023/09/13 02:50:06;;;;;;;42.00;17.98;;;;;;;16.17;100.00;101468.78;5073119;28;20037;-79
2023/09/13 02:52:33;;;;;;;35.67;17.95;;;;;;;16.16;100.00;101467.09;5073260;28;20516;-78
2023/09/13 02:54:59;;;;;;;33.17;16.05;;;;;;;16.13;100.00;101464.72;5073947;28;20041;-79
2023/09/13 02:57:25;;;;;;;40.35;17.67;;;;;;;16.10;100.00;101467.75;5074440;28;20081;-79
2023/09/13 02:59:51;;;;;;;41.10;19.10;;;;;;;16.08;100.00;101465.22;5074055;28;20025;-79
2023/09/13 03:02:17;;;;;;;42.50;20.75;;;;;;;16.06;100.00;101467.19;5073874;28;20044;-79
2023/09/13 03:04:42;;;;;;;43.90;20.05;;;;;;;16.09;100.00;101476.78;5072784;28;20103;-79
2023/09/13 03:07:08;;;;;;;38.70;17.75;;;;;;;16.10;100.00;101465.06;5072493;28;20461;-79
2023/09/13 03:09:34;;;;;;;64.63;27.45;;;;;;;16.12;100.00;101461.22;5074607;28;20035;-79
2023/09/13 03:11:59;;;;;;;67.75;28.27;;;;;;;16.13;100.00;101462.03;5073472;28;20033;-78
2023/09/13 03:14:25;;;;;;;82.47;32.28;;;;;;;16.17;100.00;101458.88;5073793;28;20090;-78
2023/09/13 03:16:50;;;;;;;63.90;28.27;;;;;;;16.18;100.00;101457.03;5073730;28;20029;-77
2023/09/13 03:19:15;;;;;;;81.07;33.47;;;;;;;16.17;100.00;101450.81;5073732;28;20373;-78
2023/09/13 03:21:44;;;;;;;80.15;33.80;;;;;;;16.15;100.00;101465.41;5074251;28;20040;-78
2023/09/13 03:24:09;;;;;;;84.80;33.42;;;;;;;16.15;100.00;101473.44;5073457;28;20032;-79
2023/09/13 03:26:35;;;;;;;87.88;34.53;;;;;;;16.18;100.00;101468.63;5073937;28;20514;-79
2023/09/13 03:29:00;;;;;;;96.35;36.88;;;;;;;16.22;100.00;101474.50;5073364;28;20028;-78
2023/09/13 03:31:27;;;;;;;92.78;34.90;;;;;;;16.25;100.00;101476.84;5073388;28;20119;-78
2023/09/13 03:33:55;;;;;;;95.13;36.58;;;;;;;16.32;100.00;101483.28;5073649;28;20032;-77
2023/09/13 03:36:20;;;;;;;89.82;35.30;;;;;;;16.35;100.00;101476.75;5072005;28;20039;-79
2023/09/13 03:38:46;;;;;;;91.35;35.60;;;;;;;16.35;100.00;101482.94;5073655;28;20380;-78
2023/09/13 03:41:14;;;;;;;97.38;36.47;;;;;;;16.35;100.00;101479.44;5073100;28;20444;-77
2023/09/13 03:43:40;;;;;;;88.93;33.20;;;;;;;16.34;100.00;101478.56;5073495;28;20461;-78
2023/09/13 03:46:06;;;;;;;75.63;32.17;;;;;;;16.34;100.00;101477.75;5073142;28;20078;-78
2023/09/13 03:48:33;;;;;;;77.65;31.13;;;;;;;16.33;100.00;101473.38;5073413;28;20024;-76
2023/09/13 03:50:58;;;;;;;59.33;26.30;;;;;;;16.33;100.00;101468.84;5073350;28;20590;-76
2023/09/13 03:53:24;;;;;;;62.25;25.70;;;;;;;16.31;100.00;101476.22;5072704;28;20040;-77
2023/09/13 03:55:54;;;;;;;52.63;22.83;;;;;;;16.29;100.00;101477.41;5073192;28;20041;-77
2023/09/13 03:58:19;;;;;;;49.35;22.95;;;;;;;16.25;100.00;101481.41;5072779;28;20064;-77
2023/09/13 04:00:45;;;;;;;45.63;22.95;;;;;;;16.22;100.00;101483.38;5073101;28;20139;-77
2023/09/13 04:03:11;;;;;;;50.88;22.35;;;;;;;16.20;100.00;101487.25;5072375;28;20032;-76
2023/09/13 04:05:37;;;;;;;48.90;21.75;;;;;;;16.21;100.00;101478.19;5073098;28;20487;-76
2023/09/13 04:08:02;;;;;;;40.15;19.15;;;;;;;16.26;100.00;101478.56;5071772;28;20033;-76
2023/09/13 04:10:28;;;;;;;41.28;19.60;;;;;;;16.30;100.00;101473.69;5073072;28;20036;-77
2023/09/13 04:12:53;;;;;;;36.47;19.20;;;;;;;16.34;100.00;101483.94;5072849;28;20039;-77
2023/09/13 04:15:19;;;;;;;41.65;19.05;;;;;;;16.37;100.00;101475.56;5072495;28;20373;-77
2023/09/13 04:17:44;;;;;;;34.97;18.83;;;;;;;16.41;100.00;101481.47;5072575;28;20068;-76
2023/09/13 04:20:10;;;;;;;37.95;19.63;;;;;;;16.44;100.00;101480.31;5071972;28;20127;-76
2023/09/13 04:22:36;;;;;;;42.95;22.48;;;;;;;16.48;100.00;101482.50;5072806;28;20388;-76
2023/09/13 04:25:05;;;;;;;39.03;22.58;;;;;;;16.51;100.00;101484.88;5072789;28;20040;-77
2023/09/13 04:27:30;;;;;;;37.70;14.60;;;;;;;16.51;100.00;101506.34;5072745;28;20170;-76
2023/09/13 04:29:56;;;;;;;25.30;6.53;;;;;;;16.31;100.00;101518.34;5072846;28;20120;-76
2023/09/13 04:32:23;;;;;;;20.02;4.95;;;;;;;16.11;100.00;101518.56;5072346;28;20025;-76
2023/09/13 04:34:52;;;;;;;26.88;3.92;;;;;;;15.89;100.00;101521.78;5072784;28;20166;-76
2023/09/13 04:37:18;;;;;;;29.13;3.75;;;;;;;15.65;100.00;101521.41;5072339;28;20039;-78
2023/09/13 04:39:44;;;;;;;21.67;3.53;;;;;;;15.48;100.00;101524.94;5072648;28;20028;-77
2023/09/13 04:42:10;;;;;;;30.77;3.50;;;;;;;15.34;100.00;101523.66;5072264;28;20465;-76
2023/09/13 04:44:35;;;;;;;32.05;3.85;;;;;;;15.19;100.00;101531.41;5072403;28;20033;-77
2023/09/13 04:47:01;;;;;;;31.27;3.50;;;;;;;15.08;100.00;101537.84;5072473;28;20029;-78
2023/09/13 04:49:26;;;;;;;29.90;3.13;;;;;;;14.97;100.00;101544.25;5071911;28;20119;-78
2023/09/13 04:51:52;;;;;;;27.17;3.17;;;;;;;14.85;100.00;101547.28;5072764;28;20028;-79
2023/09/13 04:54:18;;;;;;;23.17;3.17;;;;;;;14.74;100.00;101548.34;5072096;28;20040;-79
2023/09/13 04:56:43;;;;;;;22.17;2.67;;;;;;;14.65;100.00;101552.75;5072401;28;20047;-79
2023/09/13 04:59:09;;;;;;;27.27;3.42;;;;;;;14.58;100.00;101549.78;5072607;28;20487;-79
2023/09/13 05:01:34;;;;;;;34.13;5.43;;;;;;;14.53;100.00;101557.41;5071854;28;20036;-79
2023/09/13 05:04:00;;;;;;;23.45;3.13;;;;;;;14.48;100.00;101558.84;5072340;28;20067;-81
2023/09/13 05:06:25;;;;;;;17.65;2.55;;;;;;;14.44;100.00;101569.84;5071779;28;20060;-80
2023/09/13 05:08:54;;;;;;;13.95;2.55;;;;;;;14.38;100.00;101569.59;5072417;28;20024;-78
2023/09/13 05:11:19;;;;;;;27.88;3.38;;;;;;;14.26;100.00;101577.81;5071888;28;20070;-78
2023/09/13 05:13:47;;;;;;;8.10;1.77;;;;;;;14.16;100.00;101589.53;5072392;28;20036;-77
2023/09/13 05:16:14;;;;;;;7.68;1.60;;;;;;;14.04;100.00;101599.56;5072068;28;20064;-78
2023/09/13 05:18:39;;;;;;;9.77;1.83;;;;;;;13.95;100.00;101598.56;5070688;28;20426;-81
2023/09/13 05:21:05;;;;;;;10.80;1.73;;;;;;;13.92;100.00;101596.19;5072338;28;20048;-79
2023/09/13 05:23:30;;;;;;;9.55;1.45;;;;;;;13.87;100.00;101595.78;5070735;28;20479;-77
2023/09/13 05:25:55;;;;;;;4.18;1.38;;;;;;;13.86;100.00;101599.44;5071028;28;20445;-78
2023/09/13 05:28:21;;;;;;;9.30;2.08;;;;;;;13.82;100.00;101603.38;5070548;28;20039;-78
2023/09/13 05:30:48;;;;;;;4.80;1.30;;;;;;;13.76;100.00;101615.47;5075974;28;20056;-77
2023/09/13 05:33:14;;;;;;;4.88;2.40;;;;;;;13.71;100.00;101623.91;5075821;28;20101;-78
2023/09/13 05:35:39;;;;;;;5.85;1.67;;;;;;;13.66;100.00;101615.50;5075794;28;20028;-78
2023/09/13 05:38:05;;;;;;;6.70;1.83;;;;;;;13.63;100.00;101629.13;5076359;28;20116;-78
2023/09/13 05:40:30;;;;;;;5.90;1.40;;;;;;;13.55;100.00;101634.31;5075550;28;20037;-77
2023/09/13 05:42:57;;;;;;;2.40;1.48;;;;;;;13.50;100.00;101649.94;5075845;28;20035;-77
2023/09/13 05:45:23;;;;;;;3.38;1.20;;;;;;;13.47;100.00;101647.56;5075077;28;20337;-77
2023/09/13 05:47:49;;;;;;;7.53;1.42;;;;;;;13.47;100.00;101672.44;5075456;28;20119;-77
2023/09/13 05:50:14;;;;;;;5.95;1.38;;;;;;;13.48;100.00;101667.94;5075760;28;20058;-78
2023/09/13 05:52:40;;;;;;;6.47;1.40;;;;;;;13.45;100.00;101665.53;5075271;28;20037;-78
2023/09/13 05:55:07;;;;;;;5.50;1.30;;;;;;;13.46;100.00;101670.75;5075737;28;20036;-78
2023/09/13 05:57:32;;;;;;;4.28;1.20;;;;;;;13.45;100.00;101676.22;5075523;28;20055;-78
2023/09/13 05:59:58;;;;;;;5.15;1.30;;;;;;;13.41;100.00;101683.69;5074429;28;20476;-77
2023/09/13 06:02:23;;;;;;;4.78;2.40;;;;;;;13.35;100.00;101684.25;5057151;28;20032;-77
2023/09/13 06:04:49;;;;;;;5.15;1.60;;;;;;;13.25;100.00;101686.84;5075785;28;20369;-76
2023/09/13 06:07:14;;;;;;;6.95;1.55;;;;;;;13.20;100.00;101700.63;5075462;28;20040;-77
2023/09/13 06:09:40;;;;;;;3.78;1.08;;;;;;;13.15;100.00;101705.53;5075000;28;20029;-77
2023/09/13 06:12:05;;;;;;;5.38;1.70;;;;;;;13.14;100.00;101698.50;5075409;28;20064;-77
2023/09/13 06:14:31;;;;;;;2.05;1.02;;;;;;;13.10;100.00;101705.06;5074654;28;20063;-77
2023/09/13 06:16:57;;;;;;;5.05;1.30;;;;;;;13.09;100.00;101715.91;5075164;28;20033;-77
2023/09/13 06:19:23;;;;;;;4.38;1.00;;;;;;;13.11;100.00;101716.63;5074268;28;20453;-77
2023/09/13 06:21:48;;;;;;;5.07;1.23;;;;;;;13.08;100.00;101730.22;5075179;28;20032;-77
2023/09/13 06:24:14;;;;;;;5.50;1.38;;;;;;;13.09;100.00;101730.09;5074910;28;20032;-77
2023/09/13 06:26:40;;;;;;;4.72;1.10;;;;;;;13.10;100.00;101745.16;5074636;28;20114;-77
2023/09/13 06:29:05;;;;;;;6.65;1.90;;;;;;;13.11;100.00;101746.84;5074977;28;20121;-77
2023/09/13 06:31:31;;;;;;;7.20;1.30;;;;;;;13.15;100.00;101747.41;5074615;28;20475;-77
2023/09/13 06:33:57;;;;;;;4.70;1.30;;;;;;;13.14;100.00;101749.25;5074983;28;20037;-77
2023/09/13 06:36:22;;;;;;;12.02;2.38;;;;;;;13.18;100.00;101755.16;5074257;28;20119;-77
2023/09/13 06:38:48;;;;;;;6.60;1.88;;;;;;;13.18;100.00;101749.81;5074520;28;20060;-76
2023/09/13 06:41:13;;;;;;;4.22;1.10;;;;;;;13.21;100.00;101734.38;5075073;28;20094;-77
2023/09/13 06:43:41;;;;;;;3.10;1.20;;;;;;;13.21;100.00;101746.88;5072930;28;20056;-76
2023/09/13 06:46:06;;;;;;;3.70;1.17;;;;;;;13.23;100.00;101747.63;5074562;28;20036;-77
2023/09/13 06:48:32;;;;;;;7.88;1.20;;;;;;;13.26;100.00;101747.34;5072874;28;20035;-77
2023/09/13 06:50:58;;;;;;;4.95;1.00;;;;;;;13.25;100.00;101755.50;5073309;28;20055;-77
2023/09/13 06:53:23;;;;;;;9.05;1.40;;;;;;;13.29;100.00;101757.75;5073164;28;20131;-76
2023/09/13 06:55:49;;;;;;;2.50;1.10;;;;;;;13.36;100.00;101769.66;5074369;28;20031;-76
2023/09/13 06:58:14;;;;;;;5.95;1.30;;;;;;;13.44;100.00;101774.31;5073154;28;20536;-77
2023/09/13 07:00:41;;;;;;;2.88;1.20;;;;;;;13.62;100.00;101782.53;5073745;28;20112;-77
2023/09/13 07:03:08;;;;;;;3.15;1.20;;;;;;;13.83;100.00;101768.22;5073005;28;20400;-76
2023/09/13 07:05:33;;;;;;;2.35;1.35;;;;;;;14.04;100.00;101776.97;5072340;28;20036;-78
2023/09/13 07:08:00;;;;;;;3.95;1.20;;;;;;;14.22;100.00;101776.31;5074482;28;20070;-77
2023/09/13 07:10:26;;;;;;;3.33;0.98;;;;;;;14.32;100.00;101770.97;5074266;28;20077;-77
2023/09/13 07:12:51;;;;;;;9.75;1.40;;;;;;;14.37;100.00;101779.41;5074310;28;20229;-78
2023/09/13 07:15:16;;;;;;;5.55;1.30;;;;;;;14.46;100.00;101778.56;5073943;28;20028;-78
2023/09/13 07:17:42;;;;;;;5.75;1.27;;;;;;;14.59;100.00;101784.47;5073752;28;20024;-78
2023/09/13 07:20:08;;;;;;;4.40;1.25;;;;;;;14.76;100.00;101780.25;5074095;28;20056;-78
2023/09/13 07:22:33;;;;;;;2.10;0.95;;;;;;;14.86;100.00;101782.91;5073376;28;20418;-77
2023/09/13 07:24:59;;;;;;;2.72;1.08;;;;;;;14.96;100.00;101783.72;5072769;28;20389;-77
2023/09/13 07:27:24;;;;;;;3.88;1.13;;;;;;;15.01;100.00;101801.22;5072806;28;20464;-77
2023/09/13 07:29:50;;;;;;;6.05;1.45;;;;;;;15.10;100.00;101827.97;5073392;28;20051;-77
2023/09/13 07:32:17;;;;;;;5.20;0.95;;;;;;;15.13;100.00;101822.31;5074005;28;20119;-77
2023/09/13 07:34:42;;;;;;;3.13;0.98;;;;;;;15.14;100.00;101826.69;5055745;28;20056;-77
2023/09/13 07:37:08;;;;;;;4.00;1.00;;;;;;;15.12;100.00;101836.75;5073612;28;20460;-77
2023/09/13 07:39:33;;;;;;;2.90;1.23;;;;;;;15.14;100.00;101839.28;5073229;28;20042;-77
2023/09/13 07:41:59;;;;;;;4.80;1.20;;;;;;;15.24;100.00;101845.47;5073303;28;20488;-77
2023/09/13 07:44:24;;;;;;;3.25;0.88;;;;;;;15.38;100.00;101849.50;5073437;28;20410;-77
2023/09/13 07:46:50;;;;;;;5.05;1.40;;;;;;;15.52;100.00;101854.41;5073019;28;20041;-77
2023/09/13 07:49:15;;;;;;;5.03;1.80;;;;;;;15.64;100.00;101864.94;5073294;28;20098;-77
2023/09/13 07:51:41;;;;;;;1.95;0.85;;;;;;;15.76;100.00;101869.09;5072465;28;20040;-77
2023/09/13 07:54:07;;;;;;;3.80;1.08;;;;;;;15.86;100.00;101874.47;5073467;28;20024;-77
2023/09/13 07:56:34;;;;;;;3.55;1.17;;;;;;;15.99;100.00;101869.59;5055308;28;20033;-77
2023/09/13 07:58:59;;;;;;;2.63;1.20;;;;;;;16.12;100.00;101869.25;5073097;28;20043;-78
2023/09/13 08:01:25;;;;;;;3.80;1.10;;;;;;;16.28;100.00;101868.56;5073039;28;20028;-77
2023/09/13 08:03:50;;;;;;;4.18;1.08;;;;;;;16.49;100.00;101868.28;5072804;28;20031;-78
2023/09/13 08:06:16;;;;;;;9.13;1.25;;;;;;;16.68;100.00;101872.66;5073095;28;20150;-78
2023/09/13 08:08:41;;;;;;;3.17;1.17;;;;;;;16.83;100.00;101885.56;5071406;28;20033;-78
2023/09/13 08:11:06;;;;;;;2.72;1.20;;;;;;;16.98;100.00;101880.50;5073503;28;20174;-77
2023/09/13 08:13:32;;;;;;;1.90;1.10;;;;;;;17.15;100.00;101882.28;5072733;28;20174;-77
2023/09/13 08:15:58;;;;;;;3.53;1.40;;;;;;;17.27;100.00;101881.06;5071308;28;20035;-78
2023/09/13 08:18:23;;;;;;;4.30;1.20;;;;;;;17.37;100.00;101896.25;5072723;28;20046;-77
2023/09/13 08:20:50;;;;;;;5.22;1.27;;;;;;;17.38;100.00;101904.16;5072537;28;20028;-77
2023/09/13 08:23:16;;;;;;;2.33;1.25;;;;;;;17.39;100.00;101904.97;5072614;28;20052;-77
2023/09/13 08:25:41;;;;;;;2.63;0.90;;;;;;;17.41;100.00;101908.38;5072470;28;20481;-78
2023/09/13 08:28:07;;;;;;;3.55;1.40;;;;;;;17.37;100.00;101902.44;5072961;28;20036;-77
2023/09/13 08:30:32;;;;;;;3.72;1.25;;;;;;;17.39;100.00;101910.34;5055099;28;20036;-77
2023/09/13 08:32:57;;;;;;;4.97;1.30;;;;;;;17.46;100.00;101922.19;5072401;28;20040;-77
2023/09/13 08:35:23;;;;;;;2.92;1.15;;;;;;;17.59;100.00;101927.16;5071483;28;20115;-77
2023/09/13 08:37:49;;;;;;;3.72;1.25;;;;;;;17.78;100.00;101940.38;5072006;28;20078;-77
2023/09/13 08:40:14;;;;;;;4.78;1.10;;;;;;;18.08;100.00;101948.97;5072479;28;20032;-76
2023/09/13 08:42:41;;;;;;;3.80;1.20;;;;;;;18.33;100.00;101940.97;5070931;28;20064;-78
2023/09/13 08:45:07;;;;;;;2.80;1.13;;;;;;;18.58;100.00;101955.34;5072355;28;20032;-77
2023/09/13 08:47:36;;;;;;;2.33;1.30;;;;;;;18.70;100.00;101947.78;5072751;28;20032;-77
2023/09/13 08:50:03;;;;;;;3.30;1.30;;;;;;;18.78;100.00;101958.59;5070727;28;20028;-77
2023/09/13 08:52:30;;;;;;;6.97;1.23;;;;;;;18.70;100.00;101955.88;5072475;28;20148;-77
2023/09/13 08:54:56;;;;;;;2.95;1.30;;;;;;;18.69;100.00;101959.59;5072046;28;20107;-77
2023/09/13 08:57:24;;;;;;;2.35;1.40;;;;;;;18.84;100.00;101971.41;5072223;28;20028;-76
2023/09/13 08:59:50;;;;;;;5.45;1.50;;;;;;;18.70;100.00;101976.63;5072154;28;20162;-77
2023/09/13 09:02:18;;;;;;;2.70;1.17;;;;;;;18.74;100.00;101980.69;5071195;28;20111;-76
2023/09/13 09:04:47;;;;;;;2.55;0.98;;;;;;;18.83;100.00;101976.97;5072886;28;20384;-77
2023/09/13 09:07:14;;;;;;;2.05;1.15;;;;;;;18.99;100.00;101979.72;5076765;28;20035;-77
2023/09/13 09:09:39;;;;;;;4.03;1.10;;;;;;;19.14;100.00;101984.47;5075385;28;20037;-77
2023/09/13 09:12:07;;;;;;;2.05;1.20;;;;;;;19.28;100.00;101980.25;5075877;28;20032;-77
2023/09/13 09:14:36;;;;;;;2.42;1.20;;;;;;;19.35;100.00;101979.41;5075203;28;20028;-77
2023/09/13 09:17:02;;;;;;;5.63;1.83;;;;;;;19.48;100.00;101984.28;5075903;28;20039;-77
2023/09/13 09:19:29;;;;;;;1.73;1.20;;;;;;;19.91;100.00;101989.44;5076186;28;20420;-77
2023/09/13 09:21:58;;;;;;;1.88;1.17;;;;;;;20.26;100.00;101990.84;5075890;28;20102;-76
2023/09/13 09:24:23;;;;;;;1.48;1.10;;;;;;;20.61;100.00;101994.06;5075924;28;20028;-76
2023/09/13 09:26:50;;;;;;;3.05;1.15;;;;;;;20.76;100.00;101993.31;5075857;28;20035;-77
2023/09/13 09:29:20;;;;;;;2.97;1.40;;;;;;;20.68;100.00;101986.13;5076301;28;20074;-77
2023/09/13 09:31:51;;;;;;;3.30;1.20;;;;;;;20.66;100.00;101996.28;5075896;28;20036;-76
2023/09/13 09:34:17;;;;;;;5.32;1.50;;;;;;;20.58;100.00;102004.38;5075994;28;20067;-75
2023/09/13 09:36:44;;;;;;;2.00;1.20;;;;;;;20.68;100.00;101996.09;5075713;28;20052;-75
2023/09/13 09:39:10;;;;;;;2.45;1.35;;;;;;;20.94;100.00;102001.16;5075533;28;20025;-75
2023/09/13 09:41:37;;;;;;;3.42;1.30;;;;;;;21.16;100.00;102001.34;5075622;28;20028;-75
2023/09/13 09:44:04;;;;;;;4.20;1.42;;;;;;;20.96;100.00;102001.84;5075200;28;20107;-76
2023/09/13 09:46:33;;;;;;;2.33;1.27;;;;;;;20.73;100.00;102002.63;5076058;28;20029;-75
2023/09/13 09:49:00;;;;;;;3.70;1.23;;;;;;;20.52;100.00;102007.81;5074001;28;20392;-75
2023/09/13 09:51:26;;;;;;;2.33;0.93;;;;;;;20.26;100.00;102020.59;5074341;28;20438;-76
2023/09/13 09:53:52;;;;;;;4.30;1.20;;;;;;;20.06;100.00;102024.69;5075248;28;20037;-75
2023/09/13 09:56:18;;;;;;;2.20;1.00;;;;;;;19.93;100.00;102027.94;5075592;28;20116;-76
2023/09/13 09:58:46;;;;;;;2.42;1.00;;;;;;;19.84;100.00;102026.25;5075457;28;20060;-75
2023/09/13 10:01:11;;;;;;;2.17;1.08;;;;;;;20.26;100.00;102025.16;5075052;28;20029;-75
2023/09/13 10:03:37;;;;;;;5.05;1.10;;;;;;;21.70;100.00;102024.75;5075591;28;20480;-75
2023/09/13 10:06:13;;;;;;;1.77;1.00;;;;;;;22.74;100.00;102032.03;5075061;28;20040;-75
2023/09/13 10:08:43;;;;;;;2.65;1.23;;;;;;;23.04;100.00;102027.34;5074209;28;20032;-76
2023/09/13 10:11:11;;;;;;;2.13;1.10;;;;;;;23.48;100.00;102033.63;5074972;28;20041;-75
2023/09/13 10:13:37;;;;;;;4.47;1.10;;;;;;;22.86;100.00;102036.75;5075314;28;20094;-75
2023/09/13 10:16:07;;;;;;;3.88;0.90;;;;;;;21.97;100.00;102039.53;5074371;28;20119;-76
2023/09/13 10:18:42;;;;;;;3.17;1.20;;;;;;;21.41;100.00;102039.88;5074755;28;20461;-75
2023/09/13 10:21:09;;;;;;;2.92;1.15;;;;;;;20.91;100.00;102042.91;5074893;28;20424;-75
2023/09/13 10:23:39;;;;;;;4.22;1.27;;;;;;;20.67;100.00;102037.66;5075071;28;20028;-75
2023/09/13 10:26:08;;;;;;;2.40;1.05;;;;;;;20.55;100.00;102045.28;5074815;28;20043;-75
2023/09/13 10:28:35;;;;;;;3.00;1.02;;;;;;;20.55;100.00;102048.84;5075090;28;20029;-76
2023/09/13 10:31:03;;;;;;;5.53;1.08;;;;;;;20.49;100.00;102054.13;5074353;28;20036;-76
2023/09/13 10:33:34;;;;;;;2.47;1.20;;;;;;;20.40;100.00;102053.28;5075048;28;20064;-75
2023/09/13 10:36:01;;;;;;;1.58;1.00;;;;;;;20.08;100.00;102055.94;5074350;28;20046;-75
2023/09/13 10:38:37;;;;;;;2.58;0.85;;;;;;;19.62;100.00;102069.13;5074661;28;20024;-75
2023/09/13 10:41:07;;;;;;;1.52;0.90;;;;;;;19.12;100.00;102073.66;5074265;28;20036;-77
2023/09/13 10:43:33;;;;;;;8.07;1.30;;;;;;;18.68;100.00;102081.91;5073539;28;20398;-77
2023/09/13 10:46:01;;;;;;;2.65;1.08;;;;;;;18.46;100.00;102086.00;5074512;28;20037;-77
2023/09/13 10:48:27;;;;;;;4.28;1.08;;;;;;;18.37;100.00;102089.69;5074692;28;20111;-77
2023/09/13 10:50:55;;;;;;;3.13;1.00;;;;;;;18.29;100.00;102096.72;5074276;28;20361;-77
2023/09/13 10:53:22;;;;;;;2.35;0.80;;;;;;;18.23;100.00;102094.66;5074446;28;20029;-77
2023/09/13 10:55:50;;;;;;;3.38;1.02;;;;;;;18.10;100.00;102107.69;5073063;28;20079;-77
2023/09/13 10:58:20;;;;;;;6.68;1.00;;;;;;;17.81;100.00;102111.50;5074212;28;20033;-77
2023/09/13 11:00:47;;;;;;;3.40;1.38;;;;;;;17.26;100.00;102124.09;5074702;28;20112;-77
2023/09/13 11:03:12;;;;;;;2.25;1.27;;;;;;;16.96;100.00;102119.91;5073989;28;20058;-78
2023/09/13 11:05:38;;;;;;;4.82;1.73;;;;;;;16.67;100.00;102125.38;5074174;28;20074;-77
2023/09/13 11:08:07;;;;;;;5.68;2.00;;;;;;;16.61;100.00;102132.19;5073976;28;20028;-78